Date,TemperatureHighF,TemperatureAvgF,TemperatureLowF,DewpointHighF,DewpointAvgF,DewpointLowF,HumidityHigh,HumidityAvg,HumidityLow,PressureMaxIn,PressureMinIn,WindSpeedMaxMPH,WindSpeedAvgMPH,GustSpeedMaxMPH,PrecipitationSumIn
2013-7-1,67.0,64.8,63.0,66.0,63.7,61.0,97,95,90,29.91,29.83,6,0,14,1.09
2013-7-2,74.0,67.6,63.0,68.0,64.9,61.0,97,92,80,30.02,29.90,5,0,10,0.33
2013-7-3,79.0,69.0,64.0,66.0,63.9,61.0,96,85,62,30.12,30.01,1,0,9,0.02
2013-7-4,79.0,69.9,61.0,70.0,65.4,60.0,98,87,69,30.12,30.04,0,0,0,0.01
2013-7-5,77.0,70.4,63.0,70.0,66.7,62.0,97,88,75,30.12,30.04,0,0,0,0.01
2013-7-6,82.0,72.4,66.0,71.0,67.3,64.0,94,85,65,30.10,30.01,2,0,10,0.02
2013-7-7,85.0,73.6,63.0,73.0,67.9,61.0,96,83,64,30.12,30.03,1,0,7,0.02
2013-7-8,88.0,77.5,70.0,75.0,69.7,-99.9,94,80,58,30.14,30.04,7,0,12,0.00
2013-7-9,91.0,81.8,74.0,77.0,74.4,72.0,93,79,54,30.09,29.97,5,0,12,0.00
2013-7-10,85.0,77.9,75.0,76.0,70.7,-99.9,91,81,68,30.02,29.89,3,0,9,0.00
2013-7-11,81.0,74.1,64.0,73.0,63.5,58.0,96,72,49,30.04,29.94,5,0,12,0.00
2013-7-12,84.0,71.6,60.0,65.0,60.5,57.0,91,70,43,30.12,30.03,1,0,9,0.00
2013-7-13,84.0,71.7,61.0,68.0,62.7,58.0,91,75,49,30.10,30.02,3,0,12,0.04
2013-7-14,88.0,77.6,65.0,73.0,68.7,63.0,94,76,59,30.17,30.07,1,0,9,0.04
2013-7-15,87.0,79.6,73.0,75.0,72.5,69.0,93,80,64,30.26,30.16,1,0,9,0.00
2013-7-16,92.0,80.3,69.0,75.0,71.8,68.0,97,77,52,30.33,30.25,0,0,5,0.00
2013-7-17,92.0,82.0,71.0,77.0,73.2,69.0,96,77,52,30.34,30.19,2,0,5,0.00
2013-7-18,92.0,83.4,73.0,79.0,74.5,71.0,96,76,54,30.22,30.03,0,0,4,0.00
2013-7-19,90.0,81.1,73.0,75.0,73.0,71.0,96,78,56,30.05,29.91,6,0,10,0.00
2013-7-20,90.0,76.9,69.0,77.0,70.0,-99.9,97,82,59,29.97,29.81,8,1,21,0.20
2013-7-21,85.0,73.6,68.0,76.0,70.0,67.0,98,90,66,29.98,29.87,0,0,6,0.51
2013-7-22,85.0,76.2,70.0,75.0,71.5,69.0,98,87,65,29.87,29.80,4,0,9,0.09
2013-7-23,89.0,79.1,69.0,79.0,73.0,67.0,95,82,67,29.89,29.75,4,0,9,0.04
2013-7-24,78.0,70.3,63.0,69.0,61.0,57.0,92,73,53,30.02,29.88,4,0,10,0.02
2013-7-25,78.0,68.3,59.0,64.0,59.3,56.0,93,75,51,30.11,30.01,4,0,9,0.01
2013-7-26,80.0,68.9,58.0,67.0,62.2,57.0,97,81,54,30.10,29.99,4,0,10,0.01
2013-7-27,76.0,68.6,58.0,66.0,61.1,52.0,96,78,55,30.01,29.93,7,2,12,0.01
2013-7-28,76.0,64.3,52.0,60.0,54.9,51.0,96,74,49,30.08,30.00,4,0,9,0.01
2013-7-29,79.0,68.3,58.0,68.0,61.7,56.0,95,81,55,30.18,30.08,1,0,5,0.00
2013-7-30,71.0,67.9,65.0,68.0,65.2,63.0,97,91,76,30.18,30.06,0,0,7,0.31
2013-7-31,81.0,72.4,68.0,73.0,69.4,67.0,98,91,74,30.08,29.95,1,0,7,0.03